Time;durP1;ratioP1;P1;durP2;ratioP2;P2;SDS_P1;SDS_P2;PMS_P1;PMS_P2;Temp;Humidity;BMP_temperature;BMP_pressure;BME280_temperature;BME280_humidity;BME280_pressure;Samples;Min_cycle;Max_cycle;Signal;HPM_P1;HPM_P2
2023/07/14 00:01:29;;;;;;;12.85;6.75;;;;;;;19.44;65.43;101663.00;5073449;28;20397;-73
2023/07/14 00:03:54;;;;;;;11.00;6.60;;;;;;;19.36;65.55;101668.13;5064234;28;20032;-73
2023/07/14 00:06:20;;;;;;;10.35;6.45;;;;;;;19.36;65.64;101659.69;5076096;28;20479;-73
2023/07/14 00:08:46;;;;;;;9.88;6.00;;;;;;;19.40;65.78;101661.91;5081437;28;20105;-73
2023/07/14 00:11:23;;;;;;;9.50;5.90;;;;;;;19.41;65.89;101653.16;5056158;28;20036;-73
2023/07/14 00:13:50;;;;;;;9.75;6.57;;;;;;;19.34;65.87;101661.13;5054696;28;20032;-73
2023/07/14 00:16:19;;;;;;;6.75;6.07;;;;;;;19.35;65.83;101660.00;5053058;28;20098;-73
2023/07/14 00:18:45;;;;;;;9.13;5.88;;;;;;;19.35;65.85;101655.19;5052850;28;20075;-73
2023/07/14 00:21:22;;;;;;;7.82;6.13;;;;;;;19.34;65.63;101650.72;5054652;28;20021;-73
2023/07/14 00:23:49;;;;;;;7.88;5.53;;;;;;;19.31;65.36;101644.81;5053960;28;20048;-73
2023/07/14 00:26:17;;;;;;;8.50;6.35;;;;;;;19.31;65.77;101640.03;5072657;28;20063;-73
2023/07/14 00:28:43;;;;;;;8.00;5.90;;;;;;;19.30;65.47;101638.34;5052947;28;20112;-73
2023/07/14 00:31:14;;;;;;;8.65;6.18;;;;;;;19.19;65.71;101648.00;5053633;28;20602;-73
2023/07/14 00:33:41;;;;;;;7.50;5.45;;;;;;;19.26;65.38;101642.88;5053232;28;20052;-73
2023/07/14 00:36:07;;;;;;;8.18;5.68;;;;;;;19.25;65.74;101644.00;5056326;28;20021;-74
2023/07/14 00:38:34;;;;;;;6.70;5.57;;;;;;;19.24;65.99;101641.50;5055774;28;20029;-73
2023/07/14 00:41:00;;;;;;;8.70;5.85;;;;;;;19.26;65.64;101642.06;5053350;28;20465;-73
2023/07/14 00:43:26;;;;;;;7.63;5.68;;;;;;;19.23;65.72;101642.63;5052769;28;20396;-73
2023/07/14 00:45:54;;;;;;;10.85;6.35;;;;;;;19.22;65.61;101646.59;5067960;28;20035;-73
2023/07/14 00:48:22;;;;;;;7.15;5.72;;;;;;;19.22;65.41;101624.91;5070884;28;20040;-73
2023/07/14 00:50:57;;;;;;;10.93;6.40;;;;;;;19.22;65.33;101624.06;5071646;28;20075;-74
2023/07/14 00:53:29;;;;;;;9.18;6.45;;;;;;;19.19;65.50;101638.72;5068964;28;20058;-74
2023/07/14 00:56:01;;;;;;;9.20;6.63;;;;;;;19.10;65.78;101627.25;5057485;28;20032;-74
2023/07/14 00:58:27;;;;;;;;;;;;;;;19.37;64.02;101627.59;5053159;28;20032;-74
2023/07/14 01:01:22;;;;;;;9.25;6.68;;;;;;;19.26;64.80;101631.63;5056418;28;19993;-73
2023/07/14 01:03:56;;;;;;;8.07;6.38;;;;;;;19.13;65.36;101626.63;5047427;28;20045;-73
2023/07/14 01:06:27;;;;;;;9.32;6.97;;;;;;;19.07;65.91;101634.28;5070007;28;20439;-73
2023/07/14 01:09:12;;;;;;;10.87;6.77;;;;;;;19.08;65.72;101630.34;5070773;28;20081;-73
2023/07/14 01:11:44;;;;;;;9.45;6.82;;;;;;;19.06;65.80;101632.63;5065619;28;20024;-74
2023/07/14 01:14:23;;;;;;;9.70;7.20;;;;;;;19.02;65.75;101630.66;5067702;28;20059;-73
2023/07/14 01:16:51;;;;;;;9.13;6.57;;;;;;;19.02;65.72;101628.69;5052855;28;20124;-74
2023/07/14 01:19:36;;;;;;;10.88;7.10;;;;;;;19.10;65.22;101632.88;5052530;28;20553;-74
2023/07/14 01:22:17;;;;;;;8.77;7.00;;;;;;;19.04;65.54;101623.59;5072163;28;20041;-74
2023/07/14 01:25:03;;;;;;;9.88;7.13;;;;;;;19.07;65.33;101619.38;5070813;28;20043;-74
2023/07/14 01:27:29;;;;;;;8.48;7.13;;;;;;;19.03;65.83;101616.31;5052792;28;20070;-73
2023/07/14 01:29:56;;;;;;;9.23;7.35;;;;;;;19.00;65.52;101619.69;5054613;28;20430;-74
2023/07/14 01:32:23;;;;;;;7.97;7.00;;;;;;;18.95;65.61;101619.75;5071223;28;20111;-74
2023/07/14 01:34:49;;;;;;;9.93;6.85;;;;;;;18.92;65.94;101616.66;5070353;28;20021;-74
2023/07/14 01:37:19;;;;;;;10.05;7.90;;;;;;;18.91;66.08;101617.81;5057155;28;20055;-73
2023/07/14 01:39:46;;;;;;;8.88;7.32;;;;;;;18.91;66.04;101613.00;5070956;28;20050;-73
2023/07/14 01:42:12;;;;;;;8.65;7.00;;;;;;;18.90;66.22;101616.94;5060758;28;20115;-74
2023/07/14 01:44:37;;;;;;;10.00;7.90;;;;;;;18.87;66.04;101601.50;5065540;28;20045;-73
2023/07/14 01:47:05;;;;;;;10.27;7.85;;;;;;;18.90;66.01;101608.50;5056352;28;20025;-73
2023/07/14 01:49:38;;;;;;;11.82;7.72;;;;;;;18.92;66.36;101606.25;5051897;28;20471;-74
2023/07/14 01:52:07;;;;;;;9.10;6.65;;;;;;;18.96;66.44;101606.50;5073712;28;20028;-74
2023/07/14 01:54:40;;;;;;;7.90;7.10;;;;;;;18.92;66.10;101606.25;5091411;28;20024;-74
2023/07/14 01:57:12;;;;;;;8.75;7.78;;;;;;;18.95;66.02;101599.22;5092555;28;20109;-74
2023/07/14 01:59:43;;;;;;;9.57;7.03;;;;;;;18.96;65.83;101601.72;5084282;28;20495;-73
2023/07/14 02:02:14;;;;;;;9.68;7.57;;;;;;;18.91;65.71;101613.00;5068326;28;20118;-74
2023/07/14 02:04:41;;;;;;;11.75;7.55;;;;;;;18.91;65.92;101607.38;5078333;28;20020;-73
2023/07/14 02:07:12;;;;;;;7.47;6.78;;;;;;;18.93;65.23;101604.28;5069080;28;20033;-74
2023/07/14 02:09:38;;;;;;;12.32;7.10;;;;;;;18.87;65.38;101598.69;5067050;28;20025;-74
2023/07/14 02:12:05;;;;;;;9.65;7.28;;;;;;;18.88;65.21;101603.19;5051925;28;20033;-73
2023/07/14 02:15:20;;;;;;;8.18;7.18;;;;;;;18.94;65.13;101595.53;5051186;28;20053;-71
2023/07/14 02:17:47;;;;;;;9.65;7.75;;;;;;;18.85;65.43;101598.13;5051733;28;20044;-74
2023/07/14 02:20:32;;;;;;;8.63;7.57;;;;;;;18.87;65.21;101593.06;5051736;28;20025;-73
2023/07/14 02:23:01;;;;;;;7.20;6.50;;;;;;;18.86;65.33;101588.56;5056001;28;20033;-75
2023/07/14 02:25:31;;;;;;;8.68;7.82;;;;;;;18.78;65.27;101586.34;5086557;28;20655;-73
2023/07/14 02:27:57;;;;;;;10.18;7.78;;;;;;;18.76;65.49;101583.00;5051788;28;20037;-73
2023/07/14 02:30:26;;;;;;;10.43;7.95;;;;;;;18.75;65.64;101586.94;5050620;28;20495;-74
2023/07/14 02:33:07;;;;;;;10.85;7.60;;;;;;;18.73;65.67;101583.56;5051840;28;20033;-73
2023/07/14 02:35:58;;;;;;;10.85;7.15;;;;;;;18.79;64.92;101588.06;5050587;28;20884;-74
2023/07/14 02:38:24;;;;;;;7.60;6.90;;;;;;;18.65;65.04;101586.97;5054384;28;20037;-74
2023/07/14 02:40:57;;;;;;;8.18;7.28;;;;;;;18.60;65.11;101592.63;5078684;28;20028;-74
2023/07/14 02:43:24;;;;;;;8.90;6.85;;;;;;;18.59;65.13;101588.16;5069413;28;20469;-73
2023/07/14 02:46:02;;;;;;;8.95;6.72;;;;;;;18.56;64.81;101599.97;5050919;28;20051;-74
2023/07/14 02:48:38;;;;;;;8.32;6.90;;;;;;;18.59;64.78;101588.16;5051555;28;20032;-74
2023/07/14 02:51:04;;;;;;;11.23;7.70;;;;;;;18.62;64.80;101587.53;5050565;28;20029;-74
2023/07/14 02:53:30;;;;;;;11.52;7.63;;;;;;;18.63;64.49;101590.09;5051496;28;20032;-74
2023/07/14 02:55:55;;;;;;;9.90;6.65;;;;;;;18.65;64.76;101592.59;5063540;28;20086;-73
2023/07/14 02:58:21;;;;;;;9.95;7.13;;;;;;;18.59;65.00;101585.34;5069581;28;20039;-74
2023/07/14 03:00:47;;;;;;;9.32;6.75;;;;;;;18.51;65.30;101583.09;5057745;28;20028;-74
2023/07/14 03:03:13;;;;;;;9.73;7.63;;;;;;;18.45;65.39;101575.84;5054986;28;20393;-73
2023/07/14 03:05:38;;;;;;;7.65;6.93;;;;;;;18.43;65.69;101584.56;5050848;28;20029;-74
2023/07/14 03:08:07;;;;;;;7.97;7.18;;;;;;;18.45;65.94;101584.28;5058274;28;20456;-73
2023/07/14 03:10:33;;;;;;;10.68;6.93;;;;;;;18.45;65.66;101587.06;5069132;28;20500;-73
2023/07/14 03:12:59;;;;;;;7.72;6.65;;;;;;;18.46;65.44;101588.75;5057596;28;20029;-73
2023/07/14 03:15:24;;;;;;;8.57;7.55;;;;;;;18.39;65.83;101580.63;5051248;28;20370;-73
2023/07/14 03:17:50;;;;;;;8.77;6.93;;;;;;;18.45;65.75;101581.47;5053680;28;20033;-73
2023/07/14 03:20:16;;;;;;;8.05;7.25;;;;;;;18.42;65.49;101577.25;5061888;28;20016;-73
2023/07/14 03:22:43;;;;;;;9.30;6.88;;;;;;;18.40;65.53;101571.91;5069579;28;20488;-74
2023/07/14 03:25:09;;;;;;;9.68;7.47;;;;;;;18.38;65.70;101576.97;5058973;28;20452;-74
2023/07/14 03:27:34;;;;;;;8.93;7.15;;;;;;;18.36;65.67;101573.63;5080218;28;20064;-74
2023/07/14 03:29:59;;;;;;;8.48;6.68;;;;;;;18.45;65.19;101573.84;5070166;28;20115;-74
2023/07/14 03:32:25;;;;;;;10.82;6.38;;;;;;;18.44;65.11;101568.53;5056463;28;20021;-74
2023/07/14 03:34:50;;;;;;;8.52;6.47;;;;;;;18.40;65.16;101563.50;5065035;28;20043;-74
2023/07/14 03:37:16;;;;;;;8.13;6.43;;;;;;;18.44;64.98;101569.38;5058341;28;20052;-74
2023/07/14 03:39:41;;;;;;;7.13;5.45;;;;;;;18.42;64.90;101563.19;5065877;28;20684;-74
2023/07/14 03:42:06;;;;;;;8.85;5.60;;;;;;;18.42;64.61;101566.00;5067786;28;20388;-74
2023/07/14 03:44:32;;;;;;;6.45;5.57;;;;;;;18.36;64.64;101555.94;5058457;28;20040;-74
2023/07/14 03:46:58;;;;;;;7.22;5.20;;;;;;;18.42;64.58;101553.91;5064777;28;20443;-74
2023/07/14 03:49:25;;;;;;;7.13;5.38;;;;;;;18.33;64.89;101560.16;5067039;28;20120;-74
2023/07/14 03:51:52;;;;;;;7.85;5.43;;;;;;;18.30;64.91;101554.25;5062586;28;20036;-74
2023/07/14 03:54:17;;;;;;;6.85;5.18;;;;;;;18.33;64.96;101557.34;5072523;28;20029;-74
2023/07/14 03:56:44;;;;;;;11.63;5.65;;;;;;;18.28;64.98;101551.75;5077622;28;20070;-74
2023/07/14 03:59:09;;;;;;;7.60;5.03;;;;;;;18.29;64.89;101550.59;5059525;28;20112;-74
2023/07/14 04:01:35;;;;;;;7.53;5.60;;;;;;;18.24;65.20;101547.84;5055373;28;20124;-74
2023/07/14 04:04:00;;;;;;;6.22;4.82;;;;;;;18.26;65.12;101547.53;5067909;28;20466;-74
2023/07/14 04:06:25;;;;;;;8.00;5.43;;;;;;;18.28;64.84;101548.94;5053711;28;20032;-74
2023/07/14 04:08:55;;;;;;;8.13;5.20;;;;;;;18.25;65.07;101548.66;5053724;28;20029;-73
2023/07/14 04:11:20;;;;;;;8.43;5.68;;;;;;;18.23;65.22;101551.75;5072171;28;20025;-74
2023/07/14 04:13:45;;;;;;;6.75;5.35;;;;;;;18.23;65.29;101553.72;5079590;28;20505;-73
2023/07/14 04:16:11;;;;;;;10.63;5.03;;;;;;;18.29;65.14;101556.22;5056504;28;20053;-74
2023/07/14 04:18:37;;;;;;;7.15;5.07;;;;;;;18.21;65.19;101554.03;5057971;28;20024;-74
2023/07/14 04:21:08;;;;;;;7.10;5.03;;;;;;;18.24;65.01;101545.03;5072042;28;20040;-74
2023/07/14 04:23:34;;;;;;;8.23;5.18;;;;;;;18.19;65.11;101552.63;5072408;28;20036;-74
2023/07/14 04:26:00;;;;;;;6.03;4.68;;;;;;;18.27;64.97;101547.22;5087375;28;20035;-74
2023/07/14 04:28:26;;;;;;;5.80;4.47;;;;;;;18.28;65.10;101548.09;5067576;28;20067;-74
2023/07/14 04:30:55;;;;;;;7.38;4.63;;;;;;;18.29;64.84;101545.00;5054304;28;20473;-74
2023/07/14 04:33:21;;;;;;;8.45;4.97;;;;;;;18.27;64.99;101544.41;5055958;28;20456;-74
2023/07/14 04:35:51;;;;;;;6.22;4.88;;;;;;;18.25;64.91;101549.50;5068220;28;20016;-74
2023/07/14 04:38:16;;;;;;;5.43;4.57;;;;;;;18.26;64.71;101548.38;5073637;28;20031;-73
2023/07/14 04:40:42;;;;;;;6.90;5.07;;;;;;;18.23;64.46;101534.88;5065043;28;20104;-73
2023/07/14 04:43:07;;;;;;;6.65;4.28;;;;;;;18.24;64.46;101547.84;5058514;28;20074;-73
2023/07/14 04:45:37;;;;;;;7.40;4.38;;;;;;;18.23;64.59;101550.91;5070549;28;20460;-73
2023/07/14 04:48:05;;;;;;;7.88;4.50;;;;;;;18.29;64.35;101547.81;5053633;28;20021;-73
2023/07/14 04:50:30;;;;;;;8.95;4.22;;;;;;;18.25;64.23;101549.50;5071036;28;20798;-74
2023/07/14 04:52:56;;;;;;;7.40;4.20;;;;;;;18.20;64.35;101546.72;5070358;28;20032;-73
2023/07/14 04:55:22;;;;;;;6.53;4.07;;;;;;;18.12;64.48;101550.13;5071254;28;20025;-73
2023/07/14 04:57:48;;;;;;;6.60;4.53;;;;;;;18.17;64.36;101555.72;5061456;28;20037;-73
2023/07/14 05:00:17;;;;;;;7.05;4.55;;;;;;;18.15;64.39;101553.19;5070439;28;20027;-73
2023/07/14 05:02:43;;;;;;;7.50;4.22;;;;;;;18.16;64.52;101551.25;5057477;28;20036;-73
2023/07/14 05:05:12;;;;;;;9.80;4.70;;;;;;;18.10;64.76;101541.13;5052540;28;20088;-73
2023/07/14 05:07:38;;;;;;;7.32;4.70;;;;;;;18.07;65.00;101544.50;5053496;28;20090;-73
2023/07/14 05:10:03;;;;;;;7.55;4.50;;;;;;;18.21;64.73;101545.59;5052508;28;20407;-73
2023/07/14 05:12:28;;;;;;;7.40;4.03;;;;;;;18.17;64.50;101538.03;5053391;28;20040;-73
2023/07/14 05:14:54;;;;;;;7.93;4.80;;;;;;;18.17;64.74;101538.88;5056946;28;20044;-73
2023/07/14 05:17:19;;;;;;;7.13;4.65;;;;;;;18.15;64.60;101541.94;5050888;28;20571;-74
2023/07/14 05:19:44;;;;;;;7.43;4.50;;;;;;;18.15;64.83;101539.13;5076579;28;20115;-74
2023/07/14 05:22:10;;;;;;;6.07;4.45;;;;;;;18.14;64.74;101531.00;5072078;28;20567;-74
2023/07/14 05:24:35;;;;;;;8.13;4.47;;;;;;;18.17;64.51;101536.06;5057206;28;20687;-74
2023/07/14 05:27:00;;;;;;;6.47;4.65;;;;;;;18.21;64.46;101536.31;5061584;28;20094;-74
2023/07/14 05:29:26;;;;;;;7.18;5.00;;;;;;;18.22;64.34;101536.03;5064318;28;20032;-74
2023/07/14 05:31:51;;;;;;;9.60;4.40;;;;;;;18.26;64.09;101544.72;5071770;28;20040;-73
2023/07/14 05:34:17;;;;;;;9.30;4.53;;;;;;;18.18;63.80;101540.53;5061521;28;20112;-74
2023/07/14 05:36:42;;;;;;;10.07;4.45;;;;;;;18.26;63.81;101539.09;5061758;28;20028;-74
2023/07/14 05:39:08;;;;;;;11.25;5.07;;;;;;;18.24;63.56;101544.19;5073551;28;20017;-73
2023/07/14 05:41:34;;;;;;;7.82;4.28;;;;;;;18.30;63.74;101540.19;5072275;28;20028;-73
2023/07/14 05:43:59;;;;;;;8.77;4.40;;;;;;;18.33;63.41;101539.63;5072565;28;20070;-71
2023/07/14 05:46:25;;;;;;;7.30;4.40;;;;;;;18.34;63.30;101538.50;5069526;28;20041;-73
2023/07/14 05:48:50;;;;;;;7.78;4.72;;;;;;;18.37;63.19;101529.50;5071858;28;20299;-72
2023/07/14 05:51:16;;;;;;;11.63;5.20;;;;;;;18.42;62.70;101535.09;5062354;28;20389;-73
2023/07/14 05:53:42;;;;;;;6.20;4.13;;;;;;;18.49;62.78;101527.19;5053554;28;20041;-73
2023/07/14 05:56:07;;;;;;;6.78;4.50;;;;;;;18.56;62.42;101538.09;5056020;28;20032;-73
2023/07/14 05:58:33;;;;;;;9.02;4.75;;;;;;;18.60;61.95;101539.22;5050814;28;20020;-74
2023/07/14 06:00:58;;;;;;;10.85;4.72;;;;;;;18.60;61.91;101540.03;5057004;28;20040;-75
2023/07/14 06:03:25;;;;;;;6.43;3.90;;;;;;;18.81;63.31;101543.59;5070904;28;20471;-77
2023/07/14 06:05:50;;;;;;;8.98;4.32;;;;;;;18.72;61.88;101545.34;5060367;28;20051;-74
2023/07/14 06:08:18;;;;;;;7.30;4.30;;;;;;;18.78;61.61;101541.34;5050306;28;20606;-72
2023/07/14 06:10:44;;;;;;;8.07;4.50;;;;;;;18.78;61.64;101544.16;5049911;28;20040;-74
2023/07/14 06:13:09;;;;;;;10.75;4.88;;;;;;;18.76;61.45;101540.81;5059118;28;20029;-78
2023/07/14 06:15:34;;;;;;;7.55;4.18;;;;;;;18.73;61.52;101544.22;5071397;28;20087;-75
2023/07/14 06:18:00;;;;;;;7.65;4.65;;;;;;;18.69;61.85;101542.25;5061514;28;20037;-78
2023/07/14 06:20:25;;;;;;;9.18;4.28;;;;;;;18.59;61.67;101540.34;5051065;28;20029;-77
2023/07/14 06:22:51;;;;;;;10.13;4.60;;;;;;;18.60;61.91;101539.22;5049786;28;20473;-76
2023/07/14 06:25:17;;;;;;;9.15;4.68;;;;;;;18.62;62.04;101539.75;5068361;28;20425;-75
2023/07/14 06:27:43;;;;;;;9.38;4.60;;;;;;;18.61;62.42;101529.63;5067516;28;20039;-76
2023/07/14 06:30:08;;;;;;;8.10;4.60;;;;;;;18.59;62.60;101535.56;5061503;28;20383;-74
2023/07/14 06:32:34;;;;;;;7.15;4.63;;;;;;;18.61;62.79;101527.66;5058803;28;20033;-75
2023/07/14 06:34:59;;;;;;;10.60;4.90;;;;;;;18.61;62.67;101536.09;5050351;28;20115;-76
2023/07/14 06:37:26;;;;;;;10.30;4.88;;;;;;;18.64;62.14;101534.69;5051463;28;20366;-76
2023/07/14 06:39:51;;;;;;;9.18;4.95;;;;;;;18.65;62.34;101536.34;5052001;28;20028;-78
2023/07/14 06:42:17;;;;;;;8.80;4.65;;;;;;;18.75;62.27;101532.69;5066062;28;20027;-75
2023/07/14 06:44:42;;;;;;;6.90;5.35;;;;;;;18.72;62.10;101528.47;5059416;28;20480;-76
2023/07/14 06:47:08;;;;;;;8.73;5.07;;;;;;;18.74;61.94;101529.00;5049383;28;20062;-75
2023/07/14 06:49:33;;;;;;;8.45;5.07;;;;;;;18.74;61.06;101526.19;5052459;28;20039;-76
2023/07/14 06:51:59;;;;;;;9.60;4.47;;;;;;;18.78;61.14;101530.09;5049847;28;20061;-76
2023/07/14 06:54:24;;;;;;;9.10;4.25;;;;;;;18.82;61.35;101522.78;5090594;28;20020;-76
2023/07/14 06:56:49;;;;;;;7.40;4.50;;;;;;;18.77;61.00;101521.97;5089533;28;20096;-76
2023/07/14 06:59:15;;;;;;;10.73;4.32;;;;;;;18.90;61.06;101515.66;5090987;28;20055;-76
2023/07/14 07:01:41;;;;;;;8.13;4.43;;;;;;;18.92;60.07;101510.59;5090940;28;20016;-76
2023/07/14 07:04:06;;;;;;;6.65;4.20;;;;;;;18.98;60.25;101519.84;5089431;28;20055;-76
2023/07/14 07:06:31;;;;;;;8.45;3.95;;;;;;;19.03;59.90;101515.03;5091070;28;20016;-76
2023/07/14 07:08:57;;;;;;;5.78;3.63;;;;;;;19.05;59.18;101517.53;5053144;28;20366;-76
2023/07/14 07:11:22;;;;;;;6.30;3.67;;;;;;;19.07;58.85;101510.47;5050000;28;20064;-76
2023/07/14 07:13:47;;;;;;;5.28;3.67;;;;;;;19.08;58.78;101497.25;5050320;28;20350;-76
2023/07/14 07:16:15;;;;;;;9.85;3.58;;;;;;;19.09;59.01;101501.72;5050440;28;20090;-76
2023/07/14 07:18:40;;;;;;;6.40;3.50;;;;;;;19.10;59.24;101498.66;5049617;28;20025;-76
2023/07/14 07:21:07;;;;;;;5.00;3.13;;;;;;;19.08;59.04;101497.25;5050515;28;20590;-76
2023/07/14 07:23:33;;;;;;;6.15;3.55;;;;;;;19.10;58.80;101486.56;5071053;28;20041;-76
2023/07/14 07:25:58;;;;;;;5.88;3.50;;;;;;;19.10;58.38;101495.00;5090098;28;20104;-76
2023/07/14 07:28:24;;;;;;;6.80;3.13;;;;;;;19.09;58.31;101491.31;5090481;28;20878;-76
2023/07/14 07:30:49;;;;;;;6.53;3.20;;;;;;;19.09;58.03;101488.50;5089490;28;20040;-75
2023/07/14 07:33:16;;;;;;;6.53;3.33;;;;;;;19.12;57.62;101495.53;5090570;28;20102;-76
2023/07/14 07:35:42;;;;;;;6.30;2.83;;;;;;;19.14;58.15;101496.09;5090675;28;20133;-76
2023/07/14 07:38:10;;;;;;;5.50;3.15;;;;;;;19.18;58.23;101502.81;5087118;28;20392;-76
2023/07/14 07:40:36;;;;;;;7.85;3.28;;;;;;;19.21;58.41;101487.28;5084919;28;20266;-76
2023/07/14 07:43:02;;;;;;;4.13;3.00;;;;;;;19.23;57.78;101487.84;5054324;28;20029;-76
2023/07/14 07:45:27;;;;;;;5.38;2.90;;;;;;;19.24;57.71;101493.16;5049431;28;20048;-76
2023/07/14 07:47:53;;;;;;;6.35;3.42;;;;;;;19.28;57.63;101477.34;5084221;28;20020;-76
2023/07/14 07:50:18;;;;;;;5.80;3.25;;;;;;;19.31;57.34;101492.81;5090311;28;20081;-75
2023/07/14 07:52:45;;;;;;;4.43;3.00;;;;;;;19.34;56.84;101490.25;5089627;28;20031;-76
2023/07/14 07:55:11;;;;;;;6.60;2.90;;;;;;;19.37;56.67;101489.66;5090658;28;20028;-76
2023/07/14 07:57:36;;;;;;;5.45;2.88;;;;;;;19.41;56.77;101486.22;5067163;28;20496;-76
2023/07/14 08:00:04;;;;;;;4.15;2.90;;;;;;;19.41;56.69;101486.22;5068375;28;20032;-75
2023/07/14 08:02:29;;;;;;;6.38;2.70;;;;;;;19.37;56.21;101483.16;5069913;28;20068;-75
2023/07/14 08:04:55;;;;;;;5.30;2.70;;;;;;;19.41;56.64;101477.78;5073885;28;20059;-75
2023/07/14 08:07:20;;;;;;;6.03;3.13;;;;;;;19.35;56.14;101475.03;5073401;28;20757;-75
2023/07/14 08:09:47;;;;;;;4.53;2.80;;;;;;;19.34;56.74;101467.75;5073669;28;20478;-75
2023/07/14 08:12:12;;;;;;;5.32;3.10;;;;;;;19.32;56.65;101470.00;5073489;28;20472;-75
2023/07/14 08:14:54;;;;;;;6.32;3.20;;;;;;;19.40;57.11;101474.13;5071478;28;20121;-75
2023/07/14 08:17:32;;;;;;;5.82;2.38;;;;;;;19.37;55.87;101469.97;5053418;28;20025;-75
2023/07/14 08:19:59;;;;;;;6.13;2.70;;;;;;;19.35;55.33;101471.38;5052544;28;20171;-76
2023/07/14 08:22:26;;;;;;;4.78;2.33;;;;;;;19.36;55.69;101473.91;5053349;28;20056;-76
2023/07/14 08:24:56;;;;;;;5.90;2.70;;;;;;;19.42;54.94;101473.88;5050955;28;20143;-76
2023/07/14 08:27:22;;;;;;;7.13;2.70;;;;;;;19.43;54.48;101467.09;5051260;28;20036;-76
2023/07/14 08:29:47;;;;;;;4.82;2.60;;;;;;;19.48;55.04;101472.66;5052578;28;20033;-76
2023/07/14 08:32:15;;;;;;;5.80;2.88;;;;;;;19.51;55.23;101470.09;5080954;28;20020;-76
2023/07/14 08:34:41;;;;;;;6.10;2.90;;;;;;;19.55;55.82;101471.16;5050402;28;20453;-76
2023/07/14 08:37:07;;;;;;;4.05;2.60;;;;;;;19.57;55.39;101474.53;5050813;28;20083;-76
2023/07/14 08:39:33;;;;;;;6.90;2.60;;;;;;;19.56;54.35;101478.47;5058265;28;20028;-76
2023/07/14 08:42:20;;;;;;;4.10;2.42;;;;;;;19.60;55.14;101478.72;5090346;28;20099;-76
2023/07/14 08:45:07;;;;;;;5.97;2.40;;;;;;;19.80;54.95;101467.22;5091061;28;20024;-76
2023/07/14 08:47:47;;;;;;;4.68;2.33;;;;;;;19.93;54.30;101468.50;5091555;28;20028;-76
2023/07/14 08:50:18;;;;;;;5.25;2.70;;;;;;;19.97;53.27;101478.03;5066769;28;20045;-76
2023/07/14 08:52:44;;;;;;;4.10;2.35;;;;;;;20.04;53.18;101466.38;5050625;28;20029;-76
2023/07/14 08:55:21;;;;;;;4.45;2.75;;;;;;;20.10;52.93;101462.34;5050282;28;20029;-76
2023/07/14 08:57:46;;;;;;;4.75;2.40;;;;;;;20.22;53.32;101459.09;5050729;28;20544;-76
2023/07/14 09:00:23;;;;;;;3.58;2.47;;;;;;;20.30;53.42;101452.78;5052695;28;20040;-76
2023/07/14 09:03:03;;;;;;;5.35;3.00;;;;;;;20.44;53.64;101455.69;5051616;28;20028;-76
2023/07/14 09:05:31;;;;;;;4.35;2.67;;;;;;;20.56;53.14;101447.63;5051431;28;20052;-76
2023/07/14 09:07:56;;;;;;;4.00;2.67;;;;;;;20.67;52.89;101439.81;5071418;28;20078;-76
2023/07/14 09:10:38;;;;;;;3.63;2.28;;;;;;;20.73;53.10;101447.91;5071718;28;20727;-76
2023/07/14 09:13:13;;;;;;;5.53;2.78;;;;;;;20.78;52.07;101442.16;5078665;28;20216;-76
2023/07/14 09:15:40;;;;;;;4.82;2.65;;;;;;;20.84;51.98;101443.75;5091760;28;20450;-76
2023/07/14 09:18:38;;;;;;;3.28;2.47;;;;;;;20.99;53.13;101430.56;5089180;28;20024;-76
2023/07/14 09:21:19;;;;;;;4.13;2.58;;;;;;;21.12;52.25;101428.91;5092407;28;20057;-76
2023/07/14 09:24:10;;;;;;;5.45;2.80;;;;;;;21.25;52.81;101433.72;5070920;28;20099;-77
2023/07/14 09:26:41;;;;;;;5.90;2.72;;;;;;;21.35;52.23;101427.94;5076855;28;20017;-76
2023/07/14 09:29:19;;;;;;;5.38;2.90;;;;;;;21.50;52.43;101412.69;5072007;28;20021;-76
2023/07/14 09:31:53;;;;;;;4.35;2.30;;;;;;;21.55;51.05;101426.69;5065196;28;20016;-76
2023/07/14 09:34:27;;;;;;;5.20;2.70;;;;;;;21.55;51.02;101415.38;5052059;28;20039;-77
2023/07/14 09:36:54;;;;;;;5.20;2.85;;;;;;;21.51;50.96;101414.34;5052009;28;20496;-76
2023/07/14 09:39:36;;;;;;;4.80;2.33;;;;;;;21.56;51.61;101411.41;5051482;28;20108;-77
2023/07/14 09:42:05;;;;;;;5.78;2.33;;;;;;;21.53;51.01;101421.31;5051975;28;20032;-76
2023/07/14 09:44:30;;;;;;;7.45;2.78;;;;;;;21.56;51.19;101409.41;5050968;28;20025;-76
2023/07/14 09:46:58;;;;;;;4.75;2.70;;;;;;;21.61;51.18;101397.16;5069082;28;20051;-76
2023/07/14 09:49:33;;;;;;;5.88;2.70;;;;;;;21.69;51.00;101396.47;5080669;28;20024;-76
2023/07/14 09:52:14;;;;;;;5.38;2.60;;;;;;;21.71;51.41;101396.97;5087951;28;20165;-77
2023/07/14 09:54:51;;;;;;;5.38;2.90;;;;;;;21.73;51.21;101400.31;5091535;28;20028;-76
2023/07/14 09:57:18;;;;;;;4.75;2.50;;;;;;;21.76;50.70;101394.00;5091860;28;20048;-76
2023/07/14 09:59:54;;;;;;;4.55;3.10;;;;;;;21.68;50.78;101393.94;5090881;28;20109;-76
2023/07/14 10:02:26;;;;;;;5.63;2.65;;;;;;;21.74;50.86;101393.50;5091893;28;20054;-76
2023/07/14 10:04:55;;;;;;;3.60;2.70;;;;;;;21.76;50.94;101388.38;5084370;28;20035;-76
2023/07/14 10:07:34;;;;;;;6.00;2.60;;;;;;;21.84;51.27;101383.97;5087988;28;20399;-76
2023/07/14 10:10:08;;;;;;;5.05;3.03;;;;;;;21.80;51.08;101378.09;5050268;28;20040;-76
2023/07/14 10:12:40;;;;;;;6.13;2.65;;;;;;;21.80;50.78;101372.44;5050652;28;20029;-77
2023/07/14 10:15:30;;;;;;;5.47;2.67;;;;;;;21.87;51.17;101365.53;5050888;28;20060;-76
2023/07/14 10:18:01;;;;;;;4.60;2.40;;;;;;;21.87;50.28;101359.91;5049586;28;20037;-76
2023/07/14 10:20:27;;;;;;;6.05;2.85;;;;;;;21.77;50.58;101347.69;5077345;28;20035;-76
2023/07/14 10:22:57;;;;;;;3.55;2.22;;;;;;;21.80;50.32;101352.66;5090947;28;20031;-76
2023/07/14 10:25:22;;;;;;;5.43;2.40;;;;;;;21.85;50.04;101353.72;5074480;28;20048;-76
2023/07/14 10:27:57;;;;;;;4.20;2.80;;;;;;;21.89;50.70;101341.47;5069467;28;20055;-76
2023/07/14 10:30:45;;;;;;;5.78;2.60;;;;;;;22.03;50.57;101333.78;5088332;28;20038;-76
2023/07/14 10:33:38;;;;;;;6.93;2.90;;;;;;;22.13;50.50;101337.53;5091481;28;20081;-76
2023/07/14 10:36:11;;;;;;;4.32;2.40;;;;;;;22.20;49.54;101329.44;5067458;28;20032;-77
2023/07/14 10:38:45;;;;;;;4.07;2.40;;;;;;;22.27;49.38;101324.19;5085603;28;20218;-77
2023/07/14 10:41:11;;;;;;;5.13;2.65;;;;;;;22.25;48.77;101326.53;5090824;28;20024;-77
2023/07/14 10:43:46;;;;;;;4.10;2.45;;;;;;;22.29;49.51;101317.06;5091122;28;20463;-76
2023/07/14 10:46:17;;;;;;;3.33;2.10;;;;;;;22.35;48.66;101308.44;5091543;28;20028;-76
2023/07/14 10:48:47;;;;;;;5.90;2.30;;;;;;;22.40;48.35;101319.63;5090732;28;20026;-77
2023/07/14 10:51:34;;;;;;;3.90;2.30;;;;;;;22.46;48.66;101321.16;5066865;28;20017;-77
2023/07/14 10:54:11;;;;;;;4.70;2.50;;;;;;;22.45;48.58;101302.53;5070991;28;20054;-77
2023/07/14 10:56:41;;;;;;;5.22;2.60;;;;;;;22.47;47.77;101305.88;5085287;28;20380;-77
2023/07/14 10:59:34;;;;;;;5.88;2.38;;;;;;;22.45;48.63;101309.03;5090667;28;20043;-77
2023/07/14 11:02:31;;;;;;;3.70;2.35;;;;;;;22.46;48.02;101309.84;5089853;28;20028;-77
2023/07/14 11:05:03;;;;;;;2.90;2.53;;;;;;;22.38;47.64;101300.16;5090186;28;20097;-76
2023/07/14 11:07:31;;;;;;;3.88;2.45;;;;;;;22.39;47.45;101295.34;5077064;28;20120;-76
2023/07/14 11:09:58;;;;;;;4.93;2.35;;;;;;;22.36;47.74;101302.50;5062399;28;20111;-76
2023/07/14 11:12:49;;;;;;;3.92;2.38;;;;;;;22.41;48.62;101287.38;5085722;28;20031;-77
2023/07/14 11:15:26;;;;;;;4.05;2.25;;;;;;;22.42;48.34;101284.22;5090497;28;20089;-76
2023/07/14 11:18:03;;;;;;;4.32;2.35;;;;;;;22.45;47.85;101263.78;5090139;28;20089;-76
2023/07/14 11:20:39;;;;;;;3.50;2.10;;;;;;;22.50;48.29;101257.97;5067825;28;20059;-76
2023/07/14 11:23:59;;;;;;;4.45;2.63;;;;;;;22.50;48.67;101266.44;5069347;28;20514;-76
2023/07/14 11:26:44;;;;;;;4.63;2.65;;;;;;;22.50;47.72;101257.13;5043719;28;20615;-76
2023/07/14 11:29:16;;;;;;;4.93;2.47;;;;;;;22.51;48.09;101265.28;5067148;28;20049;-76
2023/07/14 11:31:48;;;;;;;7.25;2.53;;;;;;;22.53;48.32;101260.16;5079978;28;20113;-76
2023/07/14 11:34:31;;;;;;;10.10;3.38;;;;;;;22.57;48.30;101259.50;5090560;28;20024;-76
2023/07/14 11:37:34;;;;;;;3.80;2.15;;;;;;;22.61;48.47;101254.88;5089267;28;20040;-76